Bonita, CA (91902)

10:20 AM PDT on October 24, 2014 (GMT -0700)
Lower Surrey Drive | Change Station
CLOSE
Current Station
Personal Weather Station
Location: Bonita, CA
Elevation: 150 ft
Nearby Weather Stations

Elev 150 ft 32.65 °N, 117.04 °W | Updated 25 seconds ago

Clear
Clear
76.6 °F
Feels Like 78 °F
N
0.0
Wind Variable Wind from WNW
Gusts 0.0 mph

Today
High -- | Low -- °F
--% Chance of Precip.
Yesterday
High -- | Low -- °F
Precip. -- in
6:59 AM 6:04 PM
New Moon, 1% visible
Pressure 29.99 in
Visibility 10.0 miles
Clouds Clear
Heat Index 78 °F
Dew Point 57 °F
Humidity 51%
Rainfall 0.00 in
Snow Depth Not available.
UV 2.4 out of 12
Pollen 3.80 out of 12
Ozone Good
PM2.5 Moderate
Flu Activity Sporadic
METAR KSDM 241653Z 13007KT 10SM CLR 27/04 A3000 RMK AO2 SLP154 T02720039

More Conditions Fewer Conditions

Pressure 29.99 in
Visibility 10.0 miles
Clouds Clear
Heat Index 78 °F
Dew Point 57 °F
Humidity 51%
Rainfall 0.00 in
Snow Depth Not available.
UV 2.4 out of 12
Pollen 3.80 out of 12
Ozone Good
PM2.5 Moderate
Flu Activity Sporadic
METAR KSDM 241653Z 13007KT 10SM CLR 27/04 A3000 RMK AO2 SLP154 T02720039

More Conditions Fewer Conditions

10-Day Weather Forecast

Almanac

Astronomy

Oct. 24, 2014 Rise Set
Actual Time 6:59 AM PDT 6:04 PM PDT
Civil Twilight 6:33 AM PDT 6:29 PM PDT
Nautical Twilight 6:05 AM PDT 6:58 PM PDT
Astronomical Twilight 5:36 AM PDT 7:27 PM PDT
Moon 7:40 AM PDT 6:50 PM PDT
Length of Visible Light 11h 56m
Length of Day
11h 05m
Tomorrow will be 1m 51s shorter.
New Moon, 1% of the Moon is Illuminated
Today
New Moon
Oct 30
First Quarter
Nov 6
Full
Nov 14
Last Quarter
Nov 22
New

Today's Extremes

State Highs State Lows

Community

WunderPhotos

Upload Photos

1,764,620 photos uploaded!

WunderBlogs® & News

Nearby

Air Quality

  Air Quality AQ Index Pollutant
Yesterday Moderate
PM2.5
Yesterday Good
OZONE
Current Moderate
PM2.5
Current Good
OZONE
Friday Moderate
PM2.5
Friday Good
OZONE

Snow Depth

Station Depth Elevation
Virginia Lakes Ridge 0 in 9200 ft
Leavitt Lake 1 in 9400 ft
Leavitt Meadows 1 in 7200 ft
Sonora Pass 0 in 8800 ft
Summit Meadow 1 in 9122 ft

Earthquake Activity

City Distance Mag. Time & Date
Brea, California 101 miles 2.9 3:35 PM PDT
2014-10-23
Brea, California 101 miles 2.8 3:34 PM PDT
2014-10-23
Corona, California 91 miles 2.5 1:09 PM PDT
2014-10-23
Alberto Oviedo Mota, Mexico 111 miles 3.5 9:05 PM PDT
2014-10-21
Minimum magnitude displayed is 2.5.

Coastal Water Temperatures

Place Temperature
La Jolla, CA 71.1 °F
San Diego, CA 73.9 °F

Nearby Weather Stations